createdAt,value
2018-11-14T00:00:28.221Z,49.37
2018-11-14T00:03:32.452Z,47.27
2018-11-14T00:06:36.679Z,68.90
2018-11-14T00:09:40.977Z,91.10
2018-11-14T00:12:45.240Z,129.03
2018-11-14T00:15:49.501Z,119.60
2018-11-14T00:18:53.757Z,206.67
2018-11-14T00:21:57.989Z,345.40
2018-11-14T00:25:02.232Z,221.90
2018-11-14T00:28:06.478Z,252.90
2018-11-14T00:31:10.722Z,91.47
2018-11-14T00:34:14.951Z,139.83
2018-11-14T00:37:19.197Z,152.17
2018-11-14T00:40:23.442Z,64.70
2018-11-14T00:43:27.693Z,53.10
2018-11-14T00:46:31.922Z,93.37
2018-11-14T00:49:36.230Z,45.80
2018-11-14T00:52:40.536Z,67.33
2018-11-14T00:55:44.776Z,68.37
2018-11-14T00:58:49.281Z,53.83
2018-11-14T01:01:53.519Z,32.87
2018-11-14T01:04:57.794Z,66.57
2018-11-14T01:08:02.021Z,38.13
2018-11-14T01:11:06.346Z,42.47
2018-11-14T01:14:11.277Z,68.20
2018-11-14T01:17:15.570Z,34.60
2018-11-14T01:20:21.041Z,74.60
2018-11-14T01:23:25.266Z,125.83
2018-11-14T01:26:29.487Z,58.37
2018-11-14T01:29:33.720Z,129.07
2018-11-14T01:32:37.972Z,106.83
2018-11-14T01:35:42.292Z,78.57
2018-11-14T01:38:46.498Z,85.97
2018-11-14T01:41:50.757Z,102.53
2018-11-14T01:45:05.761Z,70.10
2018-11-14T01:48:10.018Z,88.80
2018-11-14T01:51:14.258Z,51.43
2018-11-14T01:54:18.484Z,67.37
2018-11-14T01:57:22.713Z,58.83
2018-11-14T02:00:26.952Z,43.13
2018-11-14T02:03:31.197Z,104.77
2018-11-14T02:06:35.428Z,36.73
2018-11-14T02:09:39.672Z,79.70
2018-11-14T02:12:44.324Z,38.67
2018-11-14T02:15:48.589Z,44.60
2018-11-14T02:18:52.837Z,103.03
2018-11-14T02:21:57.071Z,58.47
2018-11-14T02:25:01.337Z,90.27
2018-11-14T02:28:05.853Z,64.73
2018-11-14T02:31:10.084Z,42.20
2018-11-14T02:34:14.342Z,74.93
2018-11-14T02:37:18.607Z,69.00
2018-11-14T02:40:23.496Z,67.17
2018-11-14T02:43:27.733Z,41.37
2018-11-14T02:46:31.969Z,38.90
2018-11-14T02:49:36.210Z,45.93
2018-11-14T02:52:40.451Z,37.50
2018-11-14T02:55:44.689Z,28.87
2018-11-14T02:58:48.985Z,34.97
2018-11-14T03:01:53.237Z,29.60
2018-11-14T03:04:57.453Z,27.63
2018-11-14T03:08:01.698Z,20.50
2018-11-14T03:11:06.704Z,20.10
2018-11-14T03:14:10.943Z,27.50
2018-11-14T03:17:15.268Z,23.00
2018-11-14T03:20:20.679Z,26.27
2018-11-14T03:23:24.892Z,26.67
2018-11-14T03:26:29.116Z,18.53
2018-11-14T03:29:33.351Z,25.27
2018-11-14T03:32:37.592Z,25.60
2018-11-14T03:35:47.125Z,23.67
2018-11-14T03:38:51.359Z,23.27
2018-11-14T03:41:55.631Z,28.17
2018-11-14T03:44:59.852Z,21.90
2018-11-14T03:48:04.069Z,24.53
2018-11-14T03:51:08.283Z,22.53
2018-11-14T03:54:12.510Z,24.50
2018-11-14T03:57:16.729Z,33.60
2018-11-14T04:00:20.944Z,19.40
2018-11-14T04:03:25.196Z,22.70
2018-11-14T04:06:29.409Z,23.50
2018-11-14T04:09:33.853Z,19.70
2018-11-14T04:12:38.235Z,12.93
2018-11-14T04:15:42.472Z,18.77
2018-11-14T04:18:46.700Z,16.30
2018-11-14T04:21:50.933Z,19.40
2018-11-14T04:24:55.172Z,20.03
2018-11-14T04:27:59.410Z,15.43
2018-11-14T04:31:03.667Z,20.73
2018-11-14T04:34:07.905Z,20.17
2018-11-14T04:37:12.159Z,24.13
2018-11-14T04:40:19.148Z,16.77
2018-11-14T04:43:23.377Z,31.10
2018-11-14T04:46:27.626Z,26.40
2018-11-14T04:49:31.919Z,34.43
2018-11-14T04:52:36.159Z,24.50
2018-11-14T04:55:40.412Z,41.53
2018-11-14T04:58:44.689Z,36.37
2018-11-14T05:01:48.925Z,38.90
2018-11-14T05:04:53.162Z,25.77
2018-11-14T05:07:57.404Z,33.53
2018-11-14T05:11:01.633Z,17.70
2018-11-14T05:14:06.606Z,23.67
2018-11-14T05:17:10.831Z,15.87
2018-11-14T05:20:16.240Z,20.40
2018-11-14T05:23:20.479Z,25.50
2018-11-14T05:26:24.710Z,28.37
2018-11-14T05:29:28.993Z,51.13
2018-11-14T05:32:33.212Z,26.33
2018-11-14T05:35:37.453Z,35.90
2018-11-14T05:38:41.690Z,23.53
2018-11-14T05:41:45.939Z,24.47
2018-11-14T05:44:50.177Z,19.87
2018-11-14T05:47:54.487Z,17.23
2018-11-14T05:50:58.704Z,22.17
2018-11-14T05:54:02.938Z,27.20
2018-11-14T05:57:07.353Z,31.47
2018-11-14T06:00:32.131Z,46.43
2018-11-14T06:03:37.026Z,32.30
2018-11-14T06:06:41.413Z,23.77
2018-11-14T06:09:45.652Z,29.87
2018-11-14T06:12:49.856Z,33.17
2018-11-14T06:15:54.106Z,38.13
2018-11-14T06:18:58.339Z,39.23
2018-11-14T06:22:02.611Z,34.03
2018-11-14T06:25:19.959Z,38.17
2018-11-14T06:28:24.211Z,43.97
2018-11-14T06:31:28.433Z,38.00
2018-11-14T06:34:32.668Z,38.20
2018-11-14T06:37:37.258Z,45.00
2018-11-14T06:40:41.499Z,40.63
2018-11-14T06:43:45.745Z,54.30
2018-11-14T06:46:49.964Z,59.03
2018-11-14T06:49:54.429Z,60.43
2018-11-14T06:53:00.144Z,55.80
2018-11-14T06:56:04.421Z,58.87
2018-11-14T06:59:08.704Z,47.90
2018-11-14T07:02:12.899Z,56.07
2018-11-14T07:05:18.169Z,57.73
2018-11-14T07:08:22.347Z,65.93
2018-11-14T07:11:26.582Z,66.33
2018-11-14T07:14:30.998Z,65.07
2018-11-14T07:17:35.261Z,58.53
2018-11-14T07:20:40.899Z,58.07
2018-11-14T07:23:45.172Z,68.60
2018-11-14T07:26:49.401Z,68.13
2018-11-14T07:29:53.922Z,67.10
2018-11-14T07:33:01.346Z,60.47
2018-11-14T07:36:05.617Z,72.57
2018-11-14T07:39:10.420Z,62.00
2018-11-14T07:42:14.661Z,66.17
2018-11-14T07:45:18.895Z,77.77
2018-11-14T07:48:23.166Z,71.93
2018-11-14T07:51:27.423Z,58.73
2018-11-14T07:54:31.687Z,51.80
2018-11-14T07:57:36.218Z,64.27
2018-11-14T08:00:40.481Z,57.57
2018-11-14T08:03:45.053Z,61.50
2018-11-14T08:06:49.291Z,63.40
2018-11-14T08:09:53.538Z,70.30
2018-11-14T08:12:57.941Z,62.80
2018-11-14T08:16:02.646Z,70.03
2018-11-14T08:19:06.899Z,47.57
2018-11-14T08:22:11.167Z,68.50
2018-11-14T08:25:15.443Z,67.27
2018-11-14T08:28:19.690Z,65.57
2018-11-14T08:31:23.924Z,60.57
2018-11-14T08:34:28.158Z,67.97
2018-11-14T08:37:32.405Z,69.30
2018-11-14T08:40:36.665Z,73.17
2018-11-14T08:43:40.913Z,68.83
2018-11-14T08:46:45.199Z,81.53
2018-11-14T08:49:49.463Z,77.37
2018-11-14T08:52:53.743Z,65.13
2018-11-14T08:55:57.983Z,60.57
2018-11-14T08:59:02.213Z,71.97
2018-11-14T09:02:06.929Z,69.57
2018-11-14T09:05:11.365Z,67.37
2018-11-14T09:08:15.603Z,63.27
2018-11-14T09:11:19.974Z,63.90
2018-11-14T09:14:24.223Z,54.20
2018-11-14T09:17:28.386Z,58.73
2018-11-14T09:20:32.620Z,55.17
2018-11-14T09:23:36.864Z,52.87
2018-11-14T09:26:41.098Z,52.87
2018-11-14T09:29:45.323Z,52.77
2018-11-14T09:32:49.563Z,50.33
2018-11-14T09:35:53.809Z,45.90
2018-11-14T09:38:58.052Z,54.00
2018-11-14T09:42:02.305Z,55.83
2018-11-14T09:45:09.978Z,62.90
2018-11-14T09:48:14.220Z,59.67
2018-11-14T09:51:18.544Z,51.50
2018-11-14T09:54:22.959Z,49.37
2018-11-14T09:57:27.189Z,54.43
2018-11-14T10:00:34.708Z,51.53
2018-11-14T10:03:38.970Z,50.70
2018-11-14T10:06:43.817Z,62.80
2018-11-14T10:09:48.069Z,61.30
2018-11-14T10:12:52.292Z,55.20
2018-11-14T10:15:56.543Z,57.73
2018-11-14T10:19:00.803Z,61.73
2018-11-14T10:22:05.081Z,67.70
2018-11-14T10:25:09.710Z,81.33
2018-11-14T10:28:13.952Z,66.70
2018-11-14T10:31:18.173Z,69.30
2018-11-14T10:34:22.417Z,65.70
2018-11-14T10:37:26.642Z,69.77
2018-11-14T10:40:30.877Z,59.30
2018-11-14T10:43:35.105Z,72.90
2018-11-14T10:46:39.331Z,71.33
2018-11-14T10:49:43.620Z,69.87
2018-11-14T10:52:47.844Z,69.03
2018-11-14T10:55:52.096Z,74.43
2018-11-14T10:58:56.352Z,85.20
2018-11-14T11:02:05.874Z,84.07
2018-11-14T11:05:15.430Z,85.13
2018-11-14T11:08:29.785Z,99.23
2018-11-14T11:12:36.729Z,98.97
2018-11-14T11:15:46.233Z,99.40
2018-11-14T11:18:50.524Z,117.07
2018-11-14T11:21:54.785Z,101.60
2018-11-14T11:24:59.056Z,88.40
2018-11-14T11:28:03.295Z,95.00
2018-11-14T11:31:07.570Z,89.80
2018-11-14T11:34:12.335Z,101.87
2018-11-14T11:37:16.590Z,93.73
2018-11-14T11:40:20.819Z,84.57
2018-11-14T11:43:25.062Z,84.03
2018-11-14T11:46:29.351Z,76.20
2018-11-14T11:49:33.573Z,89.77
2018-11-14T11:52:37.859Z,88.97
2018-11-14T11:55:42.104Z,105.97
2018-11-14T11:58:46.446Z,93.27
2018-11-14T12:01:50.691Z,97.53
2018-11-14T12:04:54.974Z,102.57
2018-11-14T12:07:59.220Z,90.67
2018-11-14T12:11:03.500Z,100.53
2018-11-14T12:14:08.282Z,93.30
2018-11-14T12:17:12.604Z,86.13
2018-11-14T12:20:16.819Z,87.07
2018-11-14T12:23:21.131Z,99.00
2018-11-14T12:26:25.391Z,98.33
2018-11-14T12:29:29.620Z,90.73
2018-11-14T12:32:33.860Z,92.27
2018-11-14T12:35:38.159Z,99.37
2018-11-14T12:38:42.422Z,94.97
2018-11-14T12:41:46.657Z,76.93
2018-11-14T12:44:50.944Z,84.30
2018-11-14T12:47:55.185Z,77.17
2018-11-14T12:50:59.426Z,81.23
2018-11-14T12:54:03.658Z,74.67
2018-11-14T12:57:07.888Z,80.03
2018-11-14T13:00:14.844Z,85.30
2018-11-14T13:03:19.085Z,79.60
2018-11-14T13:06:23.322Z,68.43
2018-11-14T13:09:27.545Z,76.43
2018-11-14T13:12:31.799Z,78.00
2018-11-14T13:15:36.048Z,66.33
2018-11-14T13:18:40.288Z,81.97
2018-11-14T13:21:44.574Z,90.87
2018-11-14T13:24:48.829Z,85.07
2018-11-14T13:27:53.073Z,73.30
2018-11-14T13:30:57.374Z,75.07
2018-11-14T13:34:01.629Z,73.13
2018-11-14T13:37:05.891Z,74.00
2018-11-14T13:40:10.674Z,74.27
2018-11-14T13:43:14.961Z,76.70
2018-11-14T13:46:19.182Z,79.70
2018-11-14T13:49:23.698Z,71.97
2018-11-14T13:52:27.804Z,85.00
2018-11-14T13:55:32.053Z,84.63
2018-11-14T13:58:36.313Z,85.47
2018-11-14T14:01:40.578Z,93.57
2018-11-14T14:04:44.834Z,74.83
2018-11-14T14:07:49.079Z,84.37
2018-11-14T14:10:53.325Z,108.40
2018-11-14T14:14:02.882Z,84.30
2018-11-14T14:17:07.389Z,89.70
2018-11-14T14:20:13.476Z,99.57
2018-11-14T14:23:17.734Z,108.13
2018-11-14T14:26:21.989Z,106.83
2018-11-14T14:29:26.264Z,93.27
2018-11-14T14:32:30.599Z,103.70
2018-11-14T14:35:34.840Z,87.77
2018-11-14T14:38:39.110Z,94.40
2018-11-14T14:41:43.461Z,101.03
2018-11-14T14:44:47.714Z,89.57
2018-11-14T14:47:51.972Z,95.70
2018-11-14T14:50:56.228Z,85.00
2018-11-14T14:54:00.504Z,95.57
2018-11-14T14:57:04.783Z,89.30
2018-11-14T15:00:13.977Z,87.73
2018-11-14T15:03:19.893Z,87.57
2018-11-14T15:06:24.177Z,84.10
2018-11-14T15:09:28.456Z,87.27
2018-11-14T15:12:32.687Z,85.37
2018-11-14T15:15:37.400Z,78.60
2018-11-14T15:18:41.643Z,77.00
2018-11-14T15:21:45.925Z,84.97
2018-11-14T15:24:50.182Z,81.63
2018-11-14T15:27:54.450Z,69.53
2018-11-14T15:30:58.704Z,69.57
2018-11-14T15:34:02.994Z,70.30
2018-11-14T15:37:07.226Z,65.23
2018-11-14T15:40:14.336Z,69.90
2018-11-14T15:43:18.551Z,75.30
2018-11-14T15:46:22.826Z,67.93
2018-11-14T15:49:27.059Z,63.07
2018-11-14T15:52:31.318Z,69.53
2018-11-14T15:55:35.576Z,73.57
2018-11-14T15:58:39.826Z,66.77
2018-11-14T16:01:44.074Z,67.67
2018-11-14T16:04:48.329Z,66.40
2018-11-14T16:07:54.024Z,68.07
2018-11-14T16:10:58.300Z,67.17
2018-11-14T16:14:02.553Z,68.60
2018-11-14T16:17:06.819Z,68.67
2018-11-14T16:20:12.830Z,61.00
2018-11-14T16:23:17.111Z,65.67
2018-11-14T16:26:21.326Z,69.10
2018-11-14T16:29:25.583Z,67.20
2018-11-14T16:32:30.100Z,68.47
2018-11-14T16:35:34.444Z,69.97
2018-11-14T16:38:38.668Z,62.07
2018-11-14T16:41:42.927Z,67.90
2018-11-14T16:44:47.254Z,70.63
2018-11-14T16:47:51.533Z,75.17
2018-11-14T16:50:55.760Z,71.83
2018-11-14T16:54:00.025Z,75.07
2018-11-14T16:57:04.381Z,68.83
2018-11-14T17:00:14.405Z,70.70
2018-11-14T17:03:18.657Z,69.37
2018-11-14T17:06:22.885Z,72.80
2018-11-14T17:09:27.131Z,69.73
2018-11-14T17:12:31.356Z,71.27
2018-11-14T17:15:35.614Z,74.77
2018-11-14T17:18:39.850Z,75.23
2018-11-14T17:21:44.118Z,72.77
2018-11-14T17:24:48.365Z,72.47
2018-11-14T17:27:52.624Z,72.87
2018-11-14T17:30:56.854Z,73.27
2018-11-14T17:34:01.088Z,74.60
2018-11-14T17:37:05.477Z,73.40
2018-11-14T17:40:13.415Z,72.33
2018-11-14T17:43:17.648Z,70.10
2018-11-14T17:46:21.901Z,77.83
2018-11-14T17:49:26.191Z,77.27
2018-11-14T17:52:30.499Z,78.00
2018-11-14T17:55:34.894Z,76.03
2018-11-14T17:58:39.024Z,81.23
2018-11-14T18:01:43.292Z,77.20
2018-11-14T18:04:47.557Z,68.50
2018-11-14T18:07:52.565Z,79.33
2018-11-14T18:10:56.779Z,78.33
2018-11-14T18:14:01.021Z,71.97
2018-11-14T18:17:05.466Z,79.73
2018-11-14T18:20:13.296Z,87.50
2018-11-14T18:23:17.522Z,93.57
2018-11-14T18:26:21.785Z,86.23
2018-11-14T18:29:26.035Z,112.77
2018-11-14T18:32:30.264Z,75.37
2018-11-14T18:35:34.526Z,93.67
2018-11-14T18:38:38.784Z,198.70
2018-11-14T18:41:43.992Z,126.17
2018-11-14T18:44:48.238Z,82.03
2018-11-14T18:47:52.805Z,81.33
2018-11-14T18:50:57.024Z,79.07
2018-11-14T18:54:01.286Z,80.00
2018-11-14T18:57:06.177Z,137.10
2018-11-14T19:00:15.482Z,71.73
2018-11-14T19:03:19.709Z,73.63
2018-11-14T19:06:23.953Z,76.33
2018-11-14T19:09:28.191Z,62.30
2018-11-14T19:12:32.443Z,62.57
2018-11-14T19:15:37.620Z,65.57
2018-11-14T19:18:41.917Z,83.03
2018-11-14T19:21:46.124Z,104.00
2018-11-14T19:24:50.353Z,77.00
2018-11-14T19:27:54.608Z,66.13
2018-11-14T19:30:58.849Z,160.43
2018-11-14T19:34:03.094Z,79.40
2018-11-14T19:37:07.333Z,81.23
2018-11-14T19:40:15.425Z,76.20
2018-11-14T19:43:19.699Z,65.33
2018-11-14T19:46:23.968Z,57.40
2018-11-14T19:49:28.241Z,53.90
2018-11-14T19:52:32.422Z,58.87
2018-11-14T19:55:37.200Z,78.97
2018-11-14T19:58:41.313Z,93.77
2018-11-14T20:01:45.559Z,99.30
2018-11-14T20:04:49.994Z,63.37
2018-11-14T20:07:54.314Z,73.77
2018-11-14T20:10:58.568Z,93.63
2018-11-14T20:14:03.160Z,61.73
2018-11-14T20:17:07.411Z,120.87
2018-11-14T20:20:13.672Z,121.40
2018-11-14T20:23:17.936Z,177.43
2018-11-14T20:26:22.270Z,111.67
2018-11-14T20:29:26.454Z,60.30
2018-11-14T20:32:30.705Z,80.97
2018-11-14T20:35:34.936Z,88.87
2018-11-14T20:38:39.175Z,94.50
2018-11-14T20:41:43.417Z,56.60
2018-11-14T20:44:47.778Z,63.10
2018-11-14T20:47:52.022Z,53.23
2018-11-14T20:50:56.268Z,60.80
2018-11-14T20:54:00.534Z,97.60
2018-11-14T20:57:04.808Z,106.07
2018-11-14T21:00:17.620Z,82.27
2018-11-14T21:03:21.947Z,47.67
2018-11-14T21:06:26.133Z,42.77
2018-11-14T21:09:30.428Z,44.73
2018-11-14T21:12:35.194Z,122.53
2018-11-14T21:15:40.253Z,76.87
2018-11-14T21:18:44.519Z,80.17
2018-11-14T21:21:48.874Z,46.50
2018-11-14T21:24:53.179Z,88.23
2018-11-14T21:27:57.753Z,58.97
2018-11-14T21:31:02.025Z,52.53
2018-11-14T21:34:06.317Z,73.37
2018-11-14T21:37:10.585Z,62.80
2018-11-14T21:40:14.910Z,87.73
2018-11-14T21:43:19.226Z,47.70
2018-11-14T21:46:23.421Z,88.13
2018-11-14T21:49:29.800Z,95.30
2018-11-14T21:52:34.089Z,197.90
2018-11-14T21:55:38.385Z,60.97
2018-11-14T21:58:42.638Z,168.13
2018-11-14T22:01:46.889Z,57.50
2018-11-14T22:04:51.167Z,55.27
2018-11-14T22:07:55.376Z,150.63
2018-11-14T22:10:59.626Z,66.10
2018-11-14T22:14:03.964Z,40.20
2018-11-14T22:17:08.227Z,36.17
2018-11-14T22:20:14.086Z,37.17
2018-11-14T22:23:18.316Z,32.73
2018-11-14T22:26:22.567Z,36.63
2018-11-14T22:29:26.776Z,35.93
2018-11-14T22:32:31.056Z,38.83
2018-11-14T22:35:35.291Z,36.17
2018-11-14T22:38:39.605Z,42.13
2018-11-14T22:41:43.861Z,39.70
2018-11-14T22:44:48.108Z,45.17
2018-11-14T22:47:52.342Z,85.23
2018-11-14T22:50:56.581Z,44.93
2018-11-14T22:54:00.817Z,37.60
2018-11-14T22:57:05.759Z,38.40
2018-11-14T23:00:20.288Z,34.00
2018-11-14T23:03:24.522Z,55.10
2018-11-14T23:06:28.765Z,71.03
2018-11-14T23:09:33.000Z,59.07
2018-11-14T23:12:37.242Z,50.90
2018-11-14T23:15:41.595Z,42.10
2018-11-14T23:18:45.760Z,37.20
2018-11-14T23:22:04.506Z,36.40
2018-11-14T23:25:09.245Z,32.37
2018-11-14T23:28:13.495Z,38.70
2018-11-14T23:31:17.765Z,31.97
2018-11-14T23:34:22.027Z,30.33
2018-11-14T23:37:26.310Z,28.70
2018-11-14T23:40:30.757Z,31.37
2018-11-14T23:43:35.065Z,28.13
2018-11-14T23:46:39.358Z,35.57
2018-11-14T23:49:43.581Z,31.17
2018-11-14T23:52:48.873Z,34.17
2018-11-14T23:55:53.133Z,32.27
2018-11-14T23:58:57.397Z,32.27
